Time;durP1;ratioP1;P1;durP2;ratioP2;P2;SDS_P1;SDS_P2;PMS_P1;PMS_P2;Temp;Humidity;BMP_temperature;BMP_pressure;BME280_temperature;BME280_humidity;BME280_pressure;Samples;Min_cycle;Max_cycle;Signal;HPM_P1;HPM_P2
2023/07/30 00:00:42;;;;;;;2.57;1.67;;;;;;;21.99;nan;99119.47;4972531;28;20199;-80
2023/07/30 00:03:07;;;;;;;2.10;1.60;;;;;;;21.97;nan;99120.69;4968347;28;20357;-80
2023/07/30 00:05:33;;;;;;;2.17;1.80;;;;;;;21.96;nan;99119.84;4974338;28;20454;-80
2023/07/30 00:07:58;;;;;;;2.13;1.93;;;;;;;21.98;nan;99125.00;4974134;28;20196;-80
2023/07/30 00:10:24;;;;;;;2.90;2.33;;;;;;;21.97;nan;99118.00;4972822;28;20218;-80
2023/07/30 00:12:49;;;;;;;2.20;2.00;;;;;;;21.97;nan;99120.69;4975128;28;20490;-80
2023/07/30 00:15:14;;;;;;;2.53;2.33;;;;;;;21.97;nan;99126.03;4967506;28;20212;-80
2023/07/30 00:17:40;;;;;;;1.87;1.77;;;;;;;21.98;nan;99130.34;4971721;28;20204;-80
2023/07/30 00:20:08;;;;;;;2.00;1.80;;;;;;;21.97;nan;99115.31;4973320;28;20700;-80
2023/07/30 00:22:36;;;;;;;3.03;1.93;;;;;;;21.95;nan;99117.34;4974083;28;20218;-79
2023/07/30 00:25:01;;;;;;;3.20;1.93;;;;;;;21.93;nan;99127.38;4977818;23;20475;-81
2023/07/30 00:27:27;;;;;;;2.03;1.83;;;;;;;21.90;nan;99133.09;4950429;28;20778;-82
2023/07/30 00:29:52;;;;;;;3.17;2.43;;;;;;;21.86;nan;99130.78;4962137;28;20194;-80
2023/07/30 00:32:18;;;;;;;2.80;1.73;;;;;;;21.84;nan;99132.81;4966075;28;20204;-79
2023/07/30 00:34:43;;;;;;;1.70;1.60;;;;;;;21.81;nan;99125.16;4951875;28;20726;-79
2023/07/30 00:37:09;;;;;;;3.17;2.33;;;;;;;21.81;nan;99141.19;4954522;28;20284;-79
2023/07/30 00:39:35;;;;;;;2.40;2.07;;;;;;;21.78;nan;99132.72;4957127;28;20224;-77
2023/07/30 00:42:00;;;;;;;2.33;1.77;;;;;;;21.76;nan;99134.75;4965756;28;20213;-79
2023/07/30 00:44:25;;;;;;;2.37;1.90;;;;;;;21.73;nan;99146.63;4970023;28;20541;-79
2023/07/30 00:46:51;;;;;;;2.23;1.80;;;;;;;21.71;nan;99137.97;4970084;28;20510;-78
2023/07/30 00:49:18;;;;;;;1.90;1.80;;;;;;;21.70;nan;99147.00;4966810;28;20271;-80
2023/07/30 00:51:45;;;;;;;2.03;1.50;;;;;;;21.69;nan;99131.97;4960079;28;20460;-77
2023/07/30 00:54:11;;;;;;;4.33;1.97;;;;;;;21.68;nan;99135.63;4966638;28;20517;-78
2023/07/30 00:56:37;;;;;;;4.80;1.77;;;;;;;21.66;nan;99129.66;4966972;28;20470;-79
2023/07/30 00:59:02;;;;;;;4.87;2.53;;;;;;;21.65;nan;99136.00;4962112;28;20225;-78
2023/07/30 01:01:33;;;;;;;2.00;1.40;;;;;;;21.62;nan;99128.34;4965111;28;20237;-80
2023/07/30 01:03:58;;;;;;;2.87;2.30;;;;;;;21.60;nan;99131.22;4965071;28;20199;-79
2023/07/30 01:06:24;;;;;;;3.67;2.13;;;;;;;21.58;nan;99133.25;4968055;28;20787;-78
2023/07/30 01:08:49;;;;;;;4.43;2.53;;;;;;;21.57;nan;99136.06;4966838;28;20209;-80
2023/07/30 01:11:16;;;;;;;3.43;2.13;;;;;;;21.55;nan;99132.75;4947803;28;20220;-78
2023/07/30 01:13:42;;;;;;;2.60;2.17;;;;;;;21.53;nan;99134.78;4967001;28;20220;-78
2023/07/30 01:16:08;;;;;;;3.30;2.00;;;;;;;21.52;nan;99143.78;4969045;28;20565;-78
2023/07/30 01:18:34;;;;;;;2.43;2.03;;;;;;;21.50;nan;99152.00;4967411;28;21059;-79
2023/07/30 01:20:59;;;;;;;2.60;2.40;;;;;;;21.49;nan;99150.31;4953077;28;20467;-79
2023/07/30 01:23:26;;;;;;;2.70;2.37;;;;;;;21.48;nan;99148.69;4968030;28;20367;-78
2023/07/30 01:26:24;;;;;;;2.37;2.07;;;;;;;21.47;nan;99143.50;4967227;28;20547;-80
2023/07/30 01:28:56;;;;;;;2.73;1.80;;;;;;;21.47;nan;99159.53;4966982;28;20456;-79
2023/07/30 01:31:26;;;;;;;2.20;1.90;;;;;;;21.42;nan;99158.25;4966152;28;20553;-77
2023/07/30 01:33:54;;;;;;;1.90;1.70;;;;;;;21.41;nan;99153.06;4967630;28;20924;-78
2023/07/30 01:36:21;;;;;;;2.60;2.17;;;;;;;21.40;nan;99152.25;4949713;28;20561;-78
2023/07/30 01:38:49;;;;;;;3.17;1.93;;;;;;;21.39;nan;99144.41;4960573;28;21046;-80
2023/07/30 01:41:14;;;;;;;2.87;2.17;;;;;;;21.39;nan;99147.91;4944979;28;20979;-78
2023/07/30 01:43:40;;;;;;;2.50;1.93;;;;;;;21.39;nan;99136.41;4967201;28;20467;-80
2023/07/30 01:46:05;;;;;;;4.23;1.77;;;;;;;21.38;nan;99132.88;4966000;28;20253;-77
2023/07/30 01:48:31;;;;;;;1.73;1.60;;;;;;;21.37;nan;99131.22;4947867;28;20202;-80
2023/07/30 01:50:56;;;;;;;2.47;1.80;;;;;;;21.34;nan;99144.91;4962925;28;20213;-78
2023/07/30 01:53:22;;;;;;;1.60;1.50;;;;;;;21.32;nan;99138.91;4947210;28;20219;-77
2023/07/30 01:55:47;;;;;;;2.43;1.70;;;;;;;21.30;nan;99135.56;4965329;28;20717;-78
2023/07/30 01:58:13;;;;;;;3.20;1.53;;;;;;;21.29;nan;99143.78;4964242;28;20632;-77
2023/07/30 02:00:39;;;;;;;2.93;1.93;;;;;;;21.28;nan;99147.44;4968547;28;20347;-80
2023/07/30 02:03:05;;;;;;;3.75;1.90;;;;;;;21.27;nan;99143.13;4962876;28;20522;-77
2023/07/30 02:05:30;;;;;;;2.42;2.03;;;;;;;21.25;nan;99140.63;4964567;28;20583;-80
2023/07/30 02:07:56;;;;;;;4.20;2.50;;;;;;;21.23;nan;99144.50;4963873;28;20240;-79
2023/07/30 02:10:21;;;;;;;2.97;2.27;;;;;;;21.19;nan;99150.19;4965481;28;20205;-78
2023/07/30 02:12:47;;;;;;;2.50;1.57;;;;;;;21.19;nan;99154.69;4945666;28;20246;-77
2023/07/30 02:15:12;;;;;;;2.13;1.87;;;;;;;21.15;nan;99153.41;4946667;28;20456;-77
2023/07/30 02:17:38;;;;;;;2.30;2.10;;;;;;;21.13;nan;99156.22;4965693;28;20209;-79
2023/07/30 02:20:04;;;;;;;2.00;1.80;;;;;;;21.11;nan;99154.75;4967352;28;20463;-77
2023/07/30 02:22:30;;;;;;;2.73;2.33;;;;;;;21.12;nan;99159.09;4966577;28;20203;-80
2023/07/30 02:24:57;;;;;;;3.30;2.60;;;;;;;21.09;nan;99157.63;4967792;28;20456;-78
2023/07/30 02:27:22;;;;;;;2.50;2.07;;;;;;;21.10;nan;99155.75;4962545;28;20207;-77
2023/07/30 02:29:48;;;;;;;2.93;2.00;;;;;;;21.13;nan;99139.38;4966942;28;20502;-77
2023/07/30 02:32:13;;;;;;;3.30;1.83;;;;;;;21.10;nan;99145.91;4965037;28;20216;-78
2023/07/30 02:34:38;;;;;;;3.93;2.47;;;;;;;21.10;nan;99153.09;4969851;28;20227;-78
2023/07/30 02:37:04;;;;;;;3.13;2.40;;;;;;;21.13;nan;99147.41;4970524;28;20433;-78
2023/07/30 02:39:29;;;;;;;2.07;1.73;;;;;;;21.10;nan;99148.56;4970721;28;20588;-80
2023/07/30 02:41:55;;;;;;;2.63;2.03;;;;;;;21.07;nan;99151.59;4952111;28;20215;-78
2023/07/30 02:44:20;;;;;;;2.67;2.17;;;;;;;21.05;nan;99152.78;4970114;28;20211;-80
2023/07/30 02:46:46;;;;;;;3.17;2.30;;;;;;;21.02;nan;99153.97;4966725;28;20543;-77
2023/07/30 02:49:11;;;;;;;3.33;1.90;;;;;;;20.99;nan;99148.97;4969675;28;20200;-77
2023/07/30 02:51:37;;;;;;;2.00;1.80;;;;;;;20.96;nan;99155.50;4972820;28;20210;-77
2023/07/30 02:54:07;;;;;;;2.10;1.67;;;;;;;20.95;nan;99153.84;4973343;28;20306;-77
2023/07/30 02:56:32;;;;;;;3.30;2.20;;;;;;;20.91;nan;99149.03;4970318;28;20207;-77
2023/07/30 02:58:59;;;;;;;2.07;1.83;;;;;;;20.90;nan;99163.38;4966843;28;20494;-79
2023/07/30 03:01:24;;;;;;;2.80;1.70;;;;;;;20.90;nan;99161.56;4963348;28;20793;-77
2023/07/30 03:03:50;;;;;;;2.83;1.77;;;;;;;20.91;nan;99157.88;4959700;28;20439;-78
2023/07/30 03:06:16;;;;;;;2.77;2.40;;;;;;;20.92;nan;99159.53;4970239;28;20294;-77
2023/07/30 03:08:43;;;;;;;2.00;1.70;;;;;;;20.94;nan;99154.84;4971072;28;20559;-80
2023/07/30 03:11:08;;;;;;;2.43;1.87;;;;;;;20.94;nan;99154.00;4952573;28;20496;-78
2023/07/30 03:13:34;;;;;;;1.90;1.70;;;;;;;20.95;nan;99148.50;4972394;28;20559;-78
2023/07/30 03:16:00;;;;;;;2.10;1.80;;;;;;;20.94;nan;99151.34;4973181;28;20264;-78
2023/07/30 03:18:25;;;;;;;3.77;2.10;;;;;;;20.95;nan;99153.00;4972393;28;20892;-78
2023/07/30 03:20:51;;;;;;;1.60;1.50;;;;;;;20.96;nan;99162.69;4971818;28;20293;-80
2023/07/30 03:23:16;;;;;;;3.30;1.67;;;;;;;20.97;nan;99159.81;4972338;28;20298;-79
2023/07/30 03:25:41;;;;;;;2.10;1.90;;;;;;;20.99;nan;99155.16;4970805;28;20676;-80
2023/07/30 03:28:07;;;;;;;2.83;2.33;;;;;;;20.99;nan;99144.47;4971408;28;20244;-78
2023/07/30 03:30:32;;;;;;;3.20;1.67;;;;;;;21.01;nan;99144.31;4972110;28;20703;-77
2023/07/30 03:32:58;;;;;;;2.17;1.90;;;;;;;21.00;nan;99145.28;4971994;28;20294;-78
2023/07/30 03:35:23;;;;;;;4.37;1.93;;;;;;;20.99;nan;99148.97;4972752;28;20554;-78
2023/07/30 03:37:48;;;;;;;4.03;2.37;;;;;;;20.97;nan;99148.31;4962841;28;20248;-78
2023/07/30 03:40:14;;;;;;;2.43;1.93;;;;;;;20.94;nan;99146.00;4972496;28;20720;-79
2023/07/30 03:42:39;;;;;;;2.30;1.60;;;;;;;20.91;nan;99152.53;4972387;28;20202;-79
2023/07/30 03:45:06;;;;;;;1.93;1.73;;;;;;;20.88;nan;99160.88;4970395;28;20214;-78
2023/07/30 03:47:31;;;;;;;2.80;1.97;;;;;;;20.85;nan;99163.91;4967797;28;20440;-80
2023/07/30 03:49:57;;;;;;;3.00;2.70;;;;;;;20.83;nan;99163.25;4969427;28;20465;-79
2023/07/30 03:52:22;;;;;;;2.47;1.90;;;;;;;20.82;nan;99169.59;4965467;28;20609;-78
2023/07/30 03:54:47;;;;;;;2.60;1.60;;;;;;;20.82;nan;99174.94;4970027;28;20224;-79
2023/07/30 03:57:13;;;;;;;2.90;1.90;;;;;;;20.81;nan;99170.59;4969382;28;20940;-77
2023/07/30 03:59:38;;;;;;;2.17;1.90;;;;;;;20.81;nan;99181.28;4968576;28;20246;-80
2023/07/30 04:02:04;;;;;;;2.70;2.10;;;;;;;20.78;nan;99173.63;4965903;28;20214;-77
2023/07/30 04:04:29;;;;;;;3.20;2.17;;;;;;;20.76;nan;99176.44;4965866;28;20224;-80
2023/07/30 04:06:55;;;;;;;2.67;1.70;;;;;;;20.74;nan;99188.31;4948308;28;20226;-80
2023/07/30 04:09:21;;;;;;;2.10;1.70;;;;;;;20.72;nan;99187.66;4965001;28;20197;-79
2023/07/30 04:11:46;;;;;;;1.67;1.47;;;;;;;20.70;nan;99179.81;4969829;28;20216;-77
2023/07/30 04:14:12;;;;;;;2.63;1.40;;;;;;;20.69;nan;99183.50;4969945;28;20443;-79
2023/07/30 04:16:37;;;;;;;2.80;1.73;;;;;;;20.69;nan;99185.34;4970242;28;20219;-77
2023/07/30 04:19:02;;;;;;;4.03;2.17;;;;;;;20.68;nan;99189.00;4966900;28;20219;-77
2023/07/30 04:21:28;;;;;;;1.90;1.70;;;;;;;20.67;nan;99188.16;4968524;28;20214;-77
2023/07/30 04:23:53;;;;;;;2.83;1.90;;;;;;;20.68;nan;99197.81;4968816;28;20257;-77
2023/07/30 04:26:19;;;;;;;3.40;1.70;;;;;;;20.68;nan;99199.66;4969035;28;20493;-80
2023/07/30 04:28:44;;;;;;;2.43;2.17;;;;;;;20.69;nan;99201.34;4967961;28;20215;-79
2023/07/30 04:31:10;;;;;;;2.20;2.00;;;;;;;20.70;nan;99203.00;4960491;28;20461;-80
2023/07/30 04:33:35;;;;;;;4.10;2.10;;;;;;;20.70;nan;99203.84;4967672;28;20257;-77
2023/07/30 04:36:02;;;;;;;2.83;1.87;;;;;;;20.71;nan;99210.00;4952417;28;20883;-77
2023/07/30 04:38:27;;;;;;;2.17;1.53;;;;;;;20.71;nan;99215.34;4947245;28;20967;-81
2023/07/30 04:40:53;;;;;;;2.30;1.50;;;;;;;20.73;nan;99213.34;4969187;28;20441;-78
2023/07/30 04:43:18;;;;;;;2.80;2.00;;;;;;;20.73;nan;99203.47;4948031;28;20215;-80
2023/07/30 04:45:45;;;;;;;2.63;1.93;;;;;;;20.75;nan;99209.50;4960045;28;20215;-78
2023/07/30 04:48:11;;;;;;;2.13;1.93;;;;;;;20.81;nan;99217.81;4958102;28;20425;-77
2023/07/30 04:50:39;;;;;;;2.17;1.50;;;;;;;20.82;nan;99214.97;4945602;28;20263;-77
2023/07/30 04:53:04;;;;;;;2.60;1.63;;;;;;;20.86;nan;99202.94;4968614;28;20302;-80
2023/07/30 04:55:30;;;;;;;3.30;2.50;;;;;;;20.91;nan;99207.78;4945747;28;20891;-80
2023/07/30 04:57:56;;;;;;;3.73;1.80;;;;;;;20.99;nan;99203.22;4948993;28;20270;-78
2023/07/30 05:00:21;;;;;;;2.60;2.40;;;;;;;21.05;nan;99204.34;4946195;28;20469;-77
2023/07/30 05:02:47;;;;;;;5.17;2.17;;;;;;;21.12;nan;99199.16;4966309;28;20212;-78
2023/07/30 05:05:12;;;;;;;2.50;1.53;;;;;;;21.24;nan;99204.91;4965748;28;20201;-79
2023/07/30 05:07:38;;;;;;;2.37;1.50;;;;;;;21.46;nan;99201.47;4966233;28;20219;-79
2023/07/30 05:10:06;;;;;;;3.50;1.67;;;;;;;21.75;nan;99219.47;4965858;28;20209;-78
2023/07/30 05:12:31;;;;;;;2.37;1.70;;;;;;;21.95;nan;99214.44;4967909;28;22861;-80
2023/07/30 05:14:57;;;;;;;2.17;1.43;;;;;;;22.38;nan;99209.38;4965844;28;20523;-77
2023/07/30 05:17:22;;;;;;;2.03;1.70;;;;;;;22.90;nan;99218.31;4969232;28;20628;-78
2023/07/30 05:19:48;;;;;;;1.80;1.60;;;;;;;23.10;nan;99219.44;4969487;28;20221;-77
2023/07/30 05:22:13;;;;;;;6.43;1.83;;;;;;;23.11;nan;99226.44;4968641;28;20211;-79
2023/07/30 05:24:38;;;;;;;2.57;1.50;;;;;;;22.99;nan;99219.94;4967026;28;20240;-80
2023/07/30 05:27:04;;;;;;;2.07;1.80;;;;;;;22.78;nan;99220.66;4968556;28;20225;-77
2023/07/30 05:29:30;;;;;;;3.30;1.60;;;;;;;22.54;nan;99221.75;4967313;28;20271;-80
2023/07/30 05:31:55;;;;;;;2.23;1.70;;;;;;;22.38;nan;99229.97;4967190;28;20480;-77
2023/07/30 05:34:20;;;;;;;3.60;2.00;;;;;;;22.22;nan;99218.41;4964682;28;20704;-80
2023/07/30 05:36:46;;;;;;;2.70;1.88;;;;;;;22.15;nan;99219.31;4966902;28;20521;-77
2023/07/30 05:39:11;;;;;;;2.23;1.87;;;;;;;22.04;nan;99218.72;4966098;28;21049;-78
2023/07/30 05:41:37;;;;;;;1.73;1.60;;;;;;;21.98;nan;99229.28;4967013;28;20217;-78
2023/07/30 05:44:02;;;;;;;1.93;1.30;;;;;;;21.96;nan;99220.63;4966694;28;20857;-78
2023/07/30 05:46:28;;;;;;;1.97;1.53;;;;;;;21.93;nan;99227.19;4967397;28;20237;-81
2023/07/30 05:48:53;;;;;;;2.03;1.60;;;;;;;21.90;nan;99232.03;4966307;28;20582;-78
2023/07/30 05:51:18;;;;;;;1.40;1.30;;;;;;;21.92;nan;99233.53;4967783;28;20206;-80
2023/07/30 05:53:44;;;;;;;3.40;1.97;;;;;;;21.87;nan;99231.41;4965723;28;20241;-77
2023/07/30 05:56:10;;;;;;;2.77;1.60;;;;;;;21.88;nan;99237.59;4967182;28;20417;-81
2023/07/30 05:58:35;;;;;;;2.03;1.50;;;;;;;21.85;nan;99241.44;4965547;28;20256;-78
2023/07/30 06:01:02;;;;;;;1.67;1.57;;;;;;;21.85;nan;99241.44;4964672;28;20850;-78
2023/07/30 06:03:27;;;;;;;3.20;1.80;;;;;;;21.98;nan;99250.69;4964869;28;20574;-78
2023/07/30 06:05:53;;;;;;;3.00;1.77;;;;;;;22.49;nan;99250.91;4957820;28;20437;-78
2023/07/30 06:08:18;;;;;;;3.33;1.50;;;;;;;23.33;nan;99239.88;4959714;28;20308;-80
2023/07/30 06:10:43;;;;;;;1.70;1.60;;;;;;;24.15;nan;99249.41;4960260;28;21058;-78
2023/07/30 06:13:09;;;;;;;1.60;1.43;;;;;;;24.88;nan;99249.91;4959499;28;20280;-78
2023/07/30 06:15:34;;;;;;;2.67;1.47;;;;;;;25.36;nan;99253.44;4957253;28;20241;-79
2023/07/30 06:18:03;;;;;;;1.77;1.63;;;;;;;25.25;nan;99264.78;4961540;28;20201;-78
2023/07/30 06:20:29;;;;;;;1.80;1.10;;;;;;;25.11;nan;99260.31;4959811;28;20222;-80
2023/07/30 06:22:54;;;;;;;1.97;1.80;;;;;;;25.16;nan;99257.91;4964889;28;20448;-78
2023/07/30 06:25:20;;;;;;;1.30;1.20;;;;;;;25.28;nan;99263.56;4949471;28;21029;-76
2023/07/30 06:27:45;;;;;;;2.07;1.43;;;;;;;25.50;nan;99264.25;4965350;28;20557;-76
2023/07/30 06:30:11;;;;;;;2.77;1.40;;;;;;;25.33;nan;99266.44;4965855;28;20490;-76
2023/07/30 06:32:36;;;;;;;1.53;1.30;;;;;;;25.01;nan;99265.28;4967303;28;20209;-76
2023/07/30 06:35:02;;;;;;;2.50;1.73;;;;;;;24.70;nan;99266.53;4965215;28;20721;-76
2023/07/30 06:37:28;;;;;;;1.70;1.30;;;;;;;24.54;nan;99280.25;4963162;28;20308;-76
2023/07/30 06:39:53;;;;;;;1.20;1.10;;;;;;;24.65;nan;99274.34;4963175;28;20579;-76
2023/07/30 06:42:19;;;;;;;1.73;1.50;;;;;;;24.79;nan;99277.94;4964628;28;20205;-76
2023/07/30 06:44:44;;;;;;;2.50;1.53;;;;;;;24.99;nan;99273.50;4966941;28;20222;-76
2023/07/30 06:47:10;;;;;;;1.47;1.37;;;;;;;25.55;nan;99264.47;4966282;28;20210;-76
2023/07/30 06:49:36;;;;;;;3.07;1.77;;;;;;;26.02;nan;99262.69;4964470;28;20286;-76
2023/07/30 06:52:02;;;;;;;1.10;1.00;;;;;;;26.19;nan;99271.19;4964460;28;20206;-76
2023/07/30 06:54:29;;;;;;;2.63;1.43;;;;;;;26.26;nan;99277.41;4968076;28;20470;-76
2023/07/30 06:56:54;;;;;;;2.07;1.40;;;;;;;26.53;nan;99275.53;4967559;28;20269;-76
2023/07/30 06:59:20;;;;;;;1.67;1.40;;;;;;;26.96;nan;99285.00;4961537;28;20481;-76
2023/07/30 07:01:45;;;;;;;1.20;1.10;;;;;;;27.41;nan;99274.25;4965492;28;20642;-76
2023/07/30 07:04:11;;;;;;;1.67;1.43;;;;;;;27.61;nan;99271.47;4965462;28;20258;-77
2023/07/30 07:06:36;;;;;;;1.20;1.10;;;;;;;27.70;nan;99270.97;4964965;28;20311;-76
2023/07/30 07:09:01;;;;;;;1.63;1.37;;;;;;;27.52;nan;99260.13;4965443;28;20195;-76
2023/07/30 07:11:27;;;;;;;2.30;1.77;;;;;;;27.32;nan;99268.28;4963630;28;20222;-76
2023/07/30 07:13:52;;;;;;;1.50;1.40;;;;;;;27.40;nan;99276.13;4963162;28;20234;-76
2023/07/30 07:16:18;;;;;;;1.13;1.00;;;;;;;27.50;nan;99273.81;4963159;28;20254;-77
2023/07/30 07:18:44;;;;;;;1.27;1.17;;;;;;;27.93;nan;99285.84;4964694;28;20191;-77
2023/07/30 07:21:10;;;;;;;1.87;1.57;;;;;;;28.27;nan;99281.81;4967772;28;21028;-77
2023/07/30 07:23:35;;;;;;;1.90;1.40;;;;;;;28.35;nan;99286.94;4984823;28;20184;-77
2023/07/30 07:26:01;;;;;;;1.53;1.43;;;;;;;28.00;nan;99290.16;4953410;28;20893;-76
2023/07/30 07:28:26;;;;;;;1.80;1.63;;;;;;;27.59;nan;99294.09;4950766;28;20204;-77
2023/07/30 07:30:52;;;;;;;1.63;1.47;;;;;;;27.23;nan;99291.16;4948106;28;20613;-76
2023/07/30 07:33:17;;;;;;;2.67;1.77;;;;;;;26.81;nan;99296.00;4949123;28;20205;-76
2023/07/30 07:35:42;;;;;;;2.30;1.40;;;;;;;26.47;nan;99292.53;4947359;28;20217;-77
2023/07/30 07:38:08;;;;;;;1.40;1.30;;;;;;;26.26;nan;99294.38;4949920;28;20713;-77
2023/07/30 07:40:40;;;;;;;1.80;1.53;;;;;;;26.26;nan;99299.75;4949178;28;20308;-77
2023/07/30 07:43:06;;;;;;;1.60;1.50;;;;;;;26.40;nan;99302.47;4947212;28;20686;-77
2023/07/30 07:45:31;;;;;;;2.40;1.97;;;;;;;26.52;nan;99310.75;4949788;28;20779;-76
2023/07/30 07:47:57;;;;;;;2.00;1.50;;;;;;;26.51;nan;99307.25;4949278;28;20466;-76
2023/07/30 07:50:22;;;;;;;2.20;1.40;;;;;;;26.44;nan;99304.53;4949115;28;20614;-77
2023/07/30 07:52:47;;;;;;;2.30;1.90;;;;;;;26.45;nan;99299.97;4947675;28;20612;-77
2023/07/30 07:55:16;;;;;;;1.60;1.43;;;;;;;26.38;nan;99301.81;4947432;28;20688;-76
2023/07/30 07:57:42;;;;;;;2.30;1.40;;;;;;;26.37;nan;99310.97;4949555;28;20279;-77
2023/07/30 08:00:08;;;;;;;1.77;1.57;;;;;;;26.40;nan;99307.84;4947515;28;20533;-76
2023/07/30 08:02:37;;;;;;;1.70;1.50;;;;;;;26.43;nan;99307.44;4947636;28;20621;-77
2023/07/30 08:05:03;;;;;;;1.43;1.20;;;;;;;26.55;nan;99300.41;4950675;28;20906;-77
2023/07/30 08:07:28;;;;;;;1.63;1.53;;;;;;;26.87;nan;99304.09;4950298;28;20211;-76
2023/07/30 08:09:54;;;;;;;3.77;1.37;;;;;;;26.91;nan;99304.50;4946179;28;20208;-77
2023/07/30 08:12:20;;;;;;;1.90;1.40;;;;;;;26.71;nan;99326.09;4948239;28;20208;-76
2023/07/30 08:14:45;;;;;;;2.90;1.33;;;;;;;26.50;nan;99319.03;4947994;28;20462;-77
2023/07/30 08:17:10;;;;;;;2.00;1.30;;;;;;;26.15;nan;99311.16;4948168;28;20286;-76
2023/07/30 08:19:36;;;;;;;1.57;1.27;;;;;;;25.89;nan;99317.31;4948303;28;20224;-77
2023/07/30 08:22:01;;;;;;;2.10;1.60;;;;;;;25.77;nan;99309.00;4947258;28;20200;-76
2023/07/30 08:24:27;;;;;;;1.73;1.50;;;;;;;25.68;nan;99312.91;4948660;28;20230;-77
2023/07/30 08:26:52;;;;;;;2.87;1.60;;;;;;;25.54;nan;99305.81;4946729;28;20236;-77
2023/07/30 08:29:17;;;;;;;2.20;1.63;;;;;;;25.45;nan;99315.09;4948256;28;20298;-77
2023/07/30 08:31:43;;;;;;;1.80;1.70;;;;;;;25.29;nan;99314.41;4946977;28;20207;-77
2023/07/30 08:34:08;;;;;;;2.37;1.60;;;;;;;25.24;nan;99303.44;4947410;28;20236;-76
2023/07/30 08:39:15;;;;;;;1.60;1.30;;;;;;;25.49;nan;99310.97;5048817;23;20301;-77
2023/07/30 08:41:41;;;;;;;3.13;1.87;;;;;;;25.67;nan;99310.41;4980114;28;20469;-77
2023/07/30 08:44:06;;;;;;;1.90;1.37;;;;;;;25.75;nan;99311.06;4978324;28;20203;-77
2023/07/30 08:46:32;;;;;;;1.77;1.17;;;;;;;25.82;nan;99306.53;4980650;28;20261;-77
2023/07/30 08:48:57;;;;;;;2.10;1.37;;;;;;;25.94;nan;99314.03;4984895;28;20766;-77
2023/07/30 08:54:20;;;;;;;1.43;1.30;;;;;;;25.98;nan;99299.97;4974748;28;20649;-77
2023/07/30 08:56:46;;;;;;;1.80;1.40;;;;;;;25.88;nan;99310.28;4982027;28;20553;-77
2023/07/30 08:59:12;;;;;;;1.80;1.47;;;;;;;25.77;nan;99319.75;4988300;28;20485;-79
2023/07/30 09:01:40;;;;;;;1.67;1.17;;;;;;;25.73;nan;99331.13;4987723;28;20516;-78
2023/07/30 09:04:06;;;;;;;1.30;1.20;;;;;;;25.83;nan;99335.09;4991025;28;20495;-79
2023/07/30 09:06:35;;;;;;;2.60;1.47;;;;;;;26.02;nan;99338.88;4990362;28;20561;-80
2023/07/30 09:09:02;;;;;;;1.60;1.40;;;;;;;26.33;nan;99333.94;4990716;28;20513;-78
2023/07/30 09:11:28;;;;;;;1.40;1.30;;;;;;;26.65;nan;99333.16;4988714;28;21015;-79
2023/07/30 09:13:55;;;;;;;1.87;1.20;;;;;;;26.96;nan;99344.31;4990348;28;20458;-80
2023/07/30 09:16:25;;;;;;;2.83;1.30;;;;;;;27.13;nan;99349.00;4989895;28;20266;-79
2023/07/30 09:18:52;;;;;;;2.80;1.10;;;;;;;27.18;nan;99337.63;4985354;28;20461;-79
2023/07/30 09:21:18;;;;;;;2.00;1.80;;;;;;;27.26;nan;99339.28;4985204;28;20474;-79
2023/07/30 09:23:45;;;;;;;2.80;2.60;;;;;;;27.30;nan;99330.56;4989008;28;20442;-78
2023/07/30 09:26:12;;;;;;;2.73;2.53;;;;;;;27.42;nan;99344.19;4989109;28;20709;-78
2023/07/30 09:28:37;;;;;;;2.30;1.70;;;;;;;27.44;nan;99335.91;4989290;28;21107;-80
2023/07/30 09:31:04;;;;;;;2.23;1.63;;;;;;;27.53;nan;99342.69;4987801;28;20869;-78
2023/07/30 09:33:32;;;;;;;1.83;1.70;;;;;;;27.75;nan;99344.03;4986864;28;20213;-79
2023/07/30 09:35:57;;;;;;;2.80;1.20;;;;;;;28.03;nan;99361.78;4988676;28;20525;-78
2023/07/30 09:38:23;;;;;;;1.50;1.20;;;;;;;28.02;nan;99363.63;4987928;28;20452;-78
2023/07/30 09:40:49;;;;;;;1.30;1.00;;;;;;;27.93;nan;99359.53;4985239;28;20221;-79
2023/07/30 09:43:15;;;;;;;2.10;1.50;;;;;;;27.97;nan;99354.53;4986445;28;20693;-77
2023/07/30 09:45:48;;;;;;;1.73;1.43;;;;;;;28.01;nan;99363.88;4988639;28;20669;-78
2023/07/30 09:48:14;;;;;;;2.07;1.50;;;;;;;28.00;nan;99363.03;4987801;28;20463;-78
2023/07/30 09:50:41;;;;;;;1.20;1.10;;;;;;;27.94;nan;99358.47;4970244;28;20818;-78
2023/07/30 09:53:08;;;;;;;1.67;1.43;;;;;;;27.78;nan;99367.06;4986661;28;20794;-78
2023/07/30 09:55:34;;;;;;;1.73;1.30;;;;;;;27.70;nan;99372.69;4987507;28;20471;-79
2023/07/30 09:57:59;;;;;;;1.85;1.40;;;;;;;27.56;nan;99367.38;4989087;28;20428;-78
2023/07/30 10:00:27;;;;;;;1.67;1.50;;;;;;;27.48;nan;99369.47;4987602;28;20812;-79
2023/07/30 10:02:54;;;;;;;2.30;1.40;;;;;;;27.50;nan;99362.00;4989597;28;20251;-79
2023/07/30 10:05:25;;;;;;;1.30;1.20;;;;;;;27.63;nan;99369.22;4990892;28;20817;-79
2023/07/30 10:08:02;;;;;;;2.03;1.40;;;;;;;27.92;nan;99366.00;4987095;28;20500;-79
2023/07/30 10:10:29;;;;;;;2.90;1.30;;;;;;;28.20;nan;99372.88;4989415;28;20815;-79
2023/07/30 10:12:59;;;;;;;1.70;1.20;;;;;;;28.46;nan;99355.66;4987016;28;20489;-79
2023/07/30 10:15:25;;;;;;;2.13;1.57;;;;;;;28.64;nan;99357.59;4971366;28;20498;-80
2023/07/30 10:17:51;;;;;;;1.70;1.27;;;;;;;28.71;nan;99361.09;4989307;28;20485;-79
2023/07/30 10:20:31;;;;;;;2.33;1.40;;;;;;;28.80;nan;99359.75;4989955;28;20899;-78
2023/07/30 10:22:58;;;;;;;2.80;1.37;;;;;;;28.92;nan;99357.13;4989881;28;20290;-77
2023/07/30 10:25:46;;;;;;;1.97;1.40;;;;;;;29.10;nan;99369.88;4986990;28;20481;-78
2023/07/30 10:28:30;;;;;;;1.20;1.10;;;;;;;29.22;nan;99362.69;4987074;28;20748;-77
2023/07/30 10:31:09;;;;;;;1.30;1.20;;;;;;;29.15;nan;99364.63;4988487;28;20999;-78
2023/07/30 10:33:54;;;;;;;1.63;1.40;;;;;;;28.92;nan;99362.53;4985479;28;21058;-79
2023/07/30 10:36:33;;;;;;;1.90;1.53;;;;;;;28.92;nan;99359.00;4987577;28;20465;-79
2023/07/30 10:39:16;;;;;;;1.70;1.60;;;;;;;28.96;nan;99354.81;4987968;28;20965;-78
2023/07/30 10:41:46;;;;;;;1.87;1.47;;;;;;;29.08;nan;99358.44;4984314;28;20494;-79
2023/07/30 10:44:21;;;;;;;2.00;1.43;;;;;;;29.10;nan;99369.88;4987686;28;20461;-77
2023/07/30 10:46:47;;;;;;;1.40;1.30;;;;;;;29.06;nan;99364.09;4986880;28;20830;-78
2023/07/30 10:49:13;;;;;;;1.40;1.20;;;;;;;29.09;nan;99365.53;4986362;28;20442;-78
2023/07/30 10:51:39;;;;;;;2.27;1.40;;;;;;;29.08;nan;99380.09;4987044;28;20199;-79
2023/07/30 10:54:08;;;;;;;2.00;1.67;;;;;;;28.92;nan;99373.34;4986100;28;20898;-78
2023/07/30 10:56:36;;;;;;;2.90;1.53;;;;;;;28.55;nan;99372.44;4990742;28;20468;-78
2023/07/30 10:59:03;;;;;;;2.73;1.60;;;;;;;27.95;nan;99370.97;4990043;28;20833;-77
2023/07/30 11:01:29;;;;;;;1.63;1.50;;;;;;;27.60;nan;99373.19;4992681;28;20544;-79
2023/07/30 11:03:54;;;;;;;3.97;2.23;;;;;;;27.40;nan;99389.41;4989323;28;20561;-77
2023/07/30 11:06:25;;;;;;;3.80;1.70;;;;;;;27.22;nan;99387.41;4992284;28;20444;-78
2023/07/30 11:08:50;;;;;;;4.07;2.83;;;;;;;26.92;nan;99384.31;4990566;28;20765;-79
2023/07/30 11:11:16;;;;;;;1.40;1.30;;;;;;;26.74;nan;99378.75;4993475;28;20594;-80
2023/07/30 11:13:47;;;;;;;2.43;1.80;;;;;;;26.54;nan;99384.13;4989869;28;20804;-80
2023/07/30 11:16:14;;;;;;;1.80;1.40;;;;;;;26.35;nan;99385.72;4990936;28;20196;-78
2023/07/30 11:18:41;;;;;;;2.20;1.60;;;;;;;26.26;nan;99383.22;4990163;28;20442;-78
2023/07/30 11:21:08;;;;;;;2.50;1.40;;;;;;;26.17;nan;99380.97;4991200;28;20517;-78
2023/07/30 11:23:35;;;;;;;2.93;1.70;;;;;;;26.19;nan;99378.88;4990416;28;20518;-77
2023/07/30 11:26:02;;;;;;;1.37;1.23;;;;;;;26.34;nan;99384.09;4988906;28;20463;-79
2023/07/30 11:28:34;;;;;;;3.37;1.57;;;;;;;26.58;nan;99396.16;4987902;28;20454;-80
2023/07/30 11:31:11;;;;;;;1.67;1.40;;;;;;;26.71;nan;99390.75;4988750;28;20462;-78
2023/07/30 11:33:39;;;;;;;3.70;1.77;;;;;;;26.84;nan;99385.38;4987716;28;20567;-80
2023/07/30 11:36:07;;;;;;;1.97;1.60;;;;;;;26.99;nan;99387.81;4989085;28;20481;-79
2023/07/30 11:38:33;;;;;;;6.10;1.87;;;;;;;27.13;nan;99388.63;4986571;28;20943;-79
2023/07/30 11:40:59;;;;;;;2.40;1.67;;;;;;;27.19;nan;99387.00;4988567;28;20561;-78
2023/07/30 11:43:24;;;;;;;2.20;2.00;;;;;;;27.19;nan;99393.19;4989410;28;20620;-78
2023/07/30 11:46:07;;;;;;;2.27;1.70;;;;;;;27.20;nan;99388.66;4990984;28;20208;-78
2023/07/30 11:48:33;;;;;;;2.47;1.57;;;;;;;27.12;nan;99395.06;4975099;28;20215;-78
2023/07/30 11:50:58;;;;;;;2.30;1.70;;;;;;;27.05;nan;99389.69;4983324;28;20460;-81
2023/07/30 11:53:44;;;;;;;2.37;1.60;;;;;;;27.04;nan;99390.72;4988742;28;20266;-80